Latest Weather Observations for Low Rocky Point

IDT60801

Issued at 5:31 am EDT Monday 15 February 2016 (issued every 30 minutes, with the page automatically refreshed every 10 minutes)

About weather observations | Map of weather stations | Latest weather observations for TAS | Other Formats
Station Details ID: 097080 Name: LOW ROCKY POINT Lat: -42.98 Lon: 145.50 Height: 34.0 m
Data from the previous 72 hours. | See also: Recent months at Low Rocky Point
Date/Time
EDT
Temp
°C
App
Temp
°C
Dew
Point
Rel
Hum
%
Delta-T
°C
Wind Press
QNH
hPa
Press
MSL
hPa
Rain
since 9 am
mm
Dir
 
Spd
km/h
Gust
km/h
Spd
kts
Gust
kts
15/05:30am 13.9 4.9 8.9 72 2.5 NW 46 56 25 30 1006.2 1006.2 0.0
15/05:00am 13.3 5.2 8.8 74 2.3 NW 41 52 22 28 1006.6 1006.6 0.0
15/04:30am 13.6 5.0 8.2 70 2.7 NW 43 56 23 30 1006.8 1006.8 0.0
15/04:00am 13.5 4.7 7.9 69 2.8 NW 44 57 24 31 1007.0 1007.0 0.0
15/03:30am 14.0 6.3 7.3 64 3.3 NW 37 48 20 26 1007.5 1007.5 0.0
15/03:00am 13.8 6.8 6.9 63 3.4 NW 33 43 18 23 1007.9 1007.9 0.0
15/02:30am 13.8 5.8 5.9 59 3.8 WNW 37 46 20 25 1008.3 1008.3 0.0
15/02:00am 13.6 4.7 5.3 57 3.9 WNW 41 50 22 27 1008.5 1008.5 0.0
15/01:30am 13.6 5.3 6.0 60 3.6 WNW 39 50 21 27 1008.8 1008.8 0.0
15/01:00am 13.7 5.7 7.5 66 3.1 W 39 46 21 25 1008.9 1008.9 0.0
15/12:30am 13.6 6.5 8.0 69 2.8 WNW 35 44 19 24 1008.8 1008.8 0.0
15/12:00am 13.0 4.4 8.3 73 2.3 W 43 52 23 28 1008.9 1008.9 0.0
 
Date/Time
EDT
Temp
°C
App
Temp
°C
Dew
Point
Rel
Hum
%
Delta-T
°C
Wind Press
QNH
hPa
Press
MSL
hPa
Rain
since 9 am
mm
Dir
 
Spd
km/h
Gust
km/h
Spd
kts
Gust
kts
14/11:30pm 12.8 5.4 8.3 74 2.2 WNW 37 48 20 26 1008.9 1008.9 0.0
14/11:02pm 13.1 5.6 8.0 71 2.5 W 37 57 20 31 1009.1 1009.1 0.0
14/11:00pm 13.3 6.2 8.0 70 2.6 W 35 48 19 26 1009.2 1009.2 0.0
14/10:30pm 14.1 7.2 7.4 64 3.3 W 33 43 18 23 1009.3 1009.3 0.0
14/10:00pm 13.9 6.0 6.0 59 3.8 WNW 37 48 20 26 1009.3 1009.3 0.0
14/09:30pm 13.6 4.9 6.2 61 3.5 WNW 41 54 22 29 1009.2 1009.2 0.0
14/09:00pm 13.9 5.2 6.0 59 3.8 WNW 41 54 22 29 1008.8 1008.8 0.0
14/08:30pm 13.9 5.3 6.5 61 3.6 WNW 41 50 22 27 1008.6 1008.6 0.0
14/08:00pm 13.9 4.5 5.5 57 4.0 W 44 54 24 29 1008.2 1008.2 0.0
14/07:30pm 14.4 5.4 6.3 58 3.9 W 43 54 23 29 1007.9 1007.9 0.0
14/07:00pm 14.8 5.2 6.4 57 4.1 W 46 57 25 31 1007.5 1007.5 0.0
14/06:30pm 14.7 5.0 5.8 55 4.2 W 46 54 25 29 1007.4 1007.4 0.0
14/06:00pm 16.0 6.4 6.4 53 4.7 W 46 57 25 31 1007.1 1007.1 0.0
14/05:32pm 16.2 7.0 6.3 52 4.8 WNW 44 63 24 34 1006.6 1006.6 0.0
14/05:30pm 16.0 6.6 7.0 55 4.4 WNW 46 63 25 34 1006.6 1006.6 0.0
14/05:00pm 16.0 6.2 7.2 56 4.4 WNW 48 57 26 31 1006.3 1006.3 0.0
14/04:30pm 16.7 6.7 7.9 56 4.4 WNW 50 63 27 34 1006.0 1006.0 0.0
14/04:00pm 16.2 5.1 7.9 58 4.2 WNW 56 69 30 37 1005.6 1005.6 0.0
14/03:30pm 16.5 5.8 8.2 58 4.2 WNW 54 69 29 37 1005.4 1005.4 0.0
14/03:00pm 16.7 6.2 8.7 59 4.1 W 54 63 29 34 1005.1 1005.1 0.0
14/02:30pm 16.4 5.2 8.4 59 4.1 WNW 57 69 31 37 1004.6 1004.6 0.0
14/02:00pm 16.7 6.0 10.3 66 3.4 W 57 72 31 39 1004.3 1004.3 0.0
14/01:30pm 16.3 5.9 11.2 72 2.7 W 57 74 31 40 1003.9 1003.9 0.0
14/01:00pm 15.2 3.1 10.6 74 2.4 W 65 82 35 44 1003.1 1003.1 0.0
14/12:36pm 15.9 5.2 10.4 70 2.9 WNW 57 78 31 42 1002.1 1002.1 0.0
14/12:30pm 16.0 5.4 10.7 71 2.8 WNW 57 72 31 39 1002.2 1002.2 0.0
14/12:00pm 15.7 5.3 11.5 76 2.3 WNW 57 72 31 39 1002.2 1002.2 0.0
14/11:35am 16.3 6.4 11.2 72 2.7 NW 54 72 29 39 1001.9 1001.9 0.0
14/11:30am 16.4 6.2 11.3 72 2.8 NW 56 72 30 39 1002.0 1002.0 0.0
14/11:03am 17.2 7.4 11.5 69 3.1 WNW 54 72 29 39 1002.0 1002.0 0.0
14/11:00am 17.1 6.9 11.4 69 3.1 WNW 56 72 30 39 1002.0 1002.0 0.0
14/10:42am 16.7 7.4 12.0 74 2.6 NW 52 70 28 38 1002.0 1002.0 0.0
14/10:30am 16.3 7.0 11.7 74 2.5 NW 52 67 28 36 1002.1 1002.1 0.0
14/10:00am 15.9 5.4 10.4 70 2.9 NW 56 70 30 38 1002.0 1002.0 0.0
14/09:30am 16.2 5.6 10.7 70 2.9 NW 57 74 31 40 1002.0 1002.0 0.0
14/09:00am 16.1 6.6 11.3 73 2.6 NW 52 69 28 37 1002.0 1002.0 4.8
14/08:31am 15.9 6.1 11.3 74 2.5 NW 54 72 29 39 1001.7 1001.6 4.8
14/08:30am 15.9 6.0 11.1 73 2.6 NW 54 70 29 38 1001.7 1001.6 4.8
14/08:00am 15.5 6.7 10.9 74 2.5 NW 48 59 26 32 1002.0 1002.0 4.8
14/07:30am 15.2 6.0 11.0 76 2.2 NW 50 65 27 35 1001.8 1001.8 4.8
14/07:00am 14.9 5.8 11.3 79 1.9 WNW 50 61 27 33 1001.7 1001.7 4.8
14/06:30am 14.6 5.3 11.7 83 1.6 WNW 52 65 28 35 1001.4 1001.3 4.8
14/06:00am 14.1 5.6 12.0 87 1.1 NW 48 61 26 33 1001.3 1001.3 4.8
14/05:30am 13.9 5.1 12.3 90 0.9 WNW 50 65 27 35 1001.1 1001.0 4.8
14/05:00am 12.7 2.7 10.6 87 1.1 WNW 54 65 29 35 1001.4 1001.4 4.2
14/04:30am 13.5 3.8 10.5 82 1.6 W 52 65 28 35 1001.8 1001.8 3.2
14/04:20am 14.8 5.5 10.6 76 2.2 WNW 50 67 27 36 1001.6 1001.5 1.8
14/04:00am 15.9 5.5 11.5 75 2.4 NW 57 72 31 39 1001.2 1001.2 1.8
14/03:30am 16.0 5.9 11.8 76 2.3 NW 56 70 30 38 1001.1 1001.0 1.8
14/03:12am 15.5 6.2 11.7 78 2.1 NW 52 72 28 39 1001.2 1001.1 1.8
14/03:00am 15.6 6.6 11.6 77 2.2 NW 50 61 27 33 1001.5 1001.5 1.8
14/02:37am 15.6 7.9 11.6 77 2.2 NW 43 61 23 33 1001.8 1001.8 1.8
14/02:30am 15.6 7.9 11.6 77 2.2 NW 43 52 23 28 1001.9 1001.9 1.8
14/02:00am 15.5 6.2 10.7 73 2.6 NW 50 57 27 31 1002.0 1002.0 1.8
14/01:30am 14.9 5.8 11.3 79 1.9 NW 50 67 27 36 1002.3 1002.3 1.8
14/01:17am 14.2 8.3 11.2 82 1.6 NW 33 54 18 29 1002.5 1002.5 1.8
14/01:00am 14.0 6.8 10.6 80 1.8 NW 39 50 21 27 1003.0 1003.0 1.8
14/12:30am 14.5 8.4 10.3 76 2.2 NW 33 41 18 22 1003.3 1003.3 1.4
14/12:00am 15.4 7.3 10.6 73 2.6 NW 44 54 24 29 1003.5 1003.5 1.4
 
Date/Time
EDT
Temp
°C
App
Temp
°C
Dew
Point
Rel
Hum
%
Delta-T
°C
Wind Press
QNH
hPa
Press
MSL
hPa
Rain
since 9 am
mm
Dir
 
Spd
km/h
Gust
km/h
Spd
kts
Gust
kts
13/11:30pm 15.7 9.8 11.3 75 2.4 NW 33 44 18 24 1003.9 1003.9 1.4
13/11:00pm 15.0 7.5 11.0 77 2.1 WNW 41 50 22 27 1004.3 1004.3 1.4
13/10:30pm 15.7 8.9 10.5 71 2.8 WNW 37 48 20 26 1004.5 1004.5 1.4
13/10:00pm 15.7 9.2 10.5 71 2.8 WNW 35 44 19 24 1004.7 1004.7 1.4
13/09:30pm 15.5 9.6 10.3 71 2.7 WNW 32 39 17 21 1004.7 1004.7 1.4
13/09:00pm 15.5 9.4 10.3 71 2.7 WNW 33 39 18 21 1004.5 1004.5 1.4
13/08:30pm 15.4 9.2 10.0 70 2.8 WNW 33 41 18 22 1004.3 1004.3 1.4
13/08:00pm 15.4 9.5 10.6 73 2.6 WNW 32 37 17 20 1004.0 1004.0 1.4
13/07:30pm 16.0 10.5 11.8 76 2.3 W 32 41 17 22 1003.7 1003.7 1.4
13/07:00pm 15.7 10.7 12.3 80 1.9 W 30 35 16 19 1003.6 1003.6 1.4
13/06:30pm 15.7 11.6 12.8 83 1.6 W 26 33 14 18 1003.5 1003.5 1.4
13/06:00pm 16.0 11.1 13.8 87 1.2 W 32 39 17 21 1003.3 1003.3 1.4
13/05:30pm 15.9 10.8 14.9 94 0.6 W 35 43 19 23 1003.0 1003.0 1.4
13/05:00pm 15.8 10.5 15.2 96 0.3 W 37 44 20 24 1003.0 1003.0 1.4
13/04:30pm 16.0 10.4 15.4 96 0.3 WNW 39 48 21 26 1003.0 1003.0 1.4
13/04:00pm 16.0 9.5 15.0 94 0.6 WNW 43 48 23 26 1003.0 1003.0 1.2
13/03:30pm 16.7 12.0 14.9 89 1.0 WNW 33 41 18 22 1003.1 1003.1 0.4
13/03:20pm 17.4 10.6 14.9 85 1.4 NW 44 57 24 31 1003.0 1003.0 0.2
13/03:00pm 18.8 12.3 16.6 87 1.3 NNW 46 57 25 31 1002.7 1002.7 0.2
13/02:30pm 18.1 11.1 16.3 89 1.1 NW 48 65 26 35 1003.0 1003.0 0.0
13/02:24pm 17.9 11.7 15.9 88 1.2 NW 43 65 23 35 1003.1 1003.1 0.0
13/02:00pm 17.3 9.8 14.9 86 1.4 NW 48 65 26 35 1003.2 1003.2 0.0
13/01:49pm 18.1 11.1 15.2 83 1.7 NNW 46 65 25 35 1003.3 1003.3 0.0
13/01:30pm 18.5 10.9 14.8 79 2.2 NNW 48 61 26 33 1003.4 1003.4 0.0
13/01:00pm 19.2 12.8 15.5 79 2.2 NNW 43 54 23 29 1003.5 1003.5 0.0
13/12:35pm 19.1 13.2 15.8 81 2.0 NNW 41 59 22 32 1003.6 1003.6 0.0
13/12:30pm 18.3 11.1 14.8 80 2.0 NNW 46 59 25 32 1003.6 1003.6 0.0
13/12:00pm 18.9 13.1 15.9 83 1.8 NNW 41 50 22 27 1003.8 1003.8 0.0
13/11:30am 18.7 12.8 15.8 83 1.7 NNW 41 52 22 28 1004.3 1004.3 0.0
13/11:00am 16.7 8.0 13.8 83 1.6 NNW 52 65 28 35 1004.4 1004.4 0.0
13/10:49am 17.8 10.7 13.9 78 2.2 NW 44 63 24 34 1004.5 1004.5 0.0
13/10:30am 18.3 11.0 14.4 78 2.3 NW 46 61 25 33 1004.5 1004.5 0.0
13/10:00am 18.4 10.9 13.9 75 2.6 NW 46 57 25 31 1004.6 1004.6 0.0
13/09:30am 18.6 10.4 14.1 75 2.6 NW 50 59 27 32 1004.7 1004.7 0.0
13/09:00am 18.4 11.0 14.3 77 2.4 NW 46 57 25 31 1004.6 1004.6 0.0
13/08:33am 17.8 11.6 13.9 78 2.2 NNW 39 57 21 31 1004.6 1004.6 0.0
13/08:30am 18.0 11.9 14.1 78 2.2 NNW 39 48 21 26 1004.7 1004.7 0.0
13/08:00am 17.7 10.2 14.0 79 2.1 NNW 46 57 25 31 1004.8 1004.8 0.0
13/07:30am 17.6 10.7 13.9 79 2.1 NW 43 52 23 28 1005.0 1005.0 0.0
13/07:00am 17.4 9.7 13.3 77 2.3 NW 46 57 25 31 1005.1 1005.1 0.0
13/06:30am 17.4 9.0 13.5 78 2.2 NW 50 65 27 35 1004.9 1004.9 0.0
13/06:00am 17.5 9.9 13.6 78 2.2 NW 46 57 25 31 1004.9 1004.9 0.0
13/05:30am 17.3 9.3 13.6 79 2.1 NW 48 59 26 32 1004.6 1004.6 0.0
13/05:00am 17.1 9.3 14.2 83 1.7 NW 48 59 26 32 1004.9 1004.9 0.0
13/04:30am 17.1 9.8 14.4 84 1.5 NW 46 57 25 31 1005.1 1005.1 0.0
13/04:00am 17.2 10.0 14.7 85 1.4 NW 46 57 25 31 1005.2 1005.2 0.0
13/03:30am 17.0 11.0 14.5 85 1.4 NW 39 48 21 26 1005.7 1005.7 0.0
13/03:00am 17.2 10.9 14.7 85 1.4 NW 41 50 22 27 1006.1 1006.1 0.0
13/02:30am 17.2 11.7 14.7 85 1.4 NW 37 46 20 25 1006.7 1006.7 0.0
13/02:00am 17.0 12.4 14.5 85 1.4 NNW 32 41 17 22 1007.4 1007.4 0.0
13/01:30am 17.0 13.1 14.3 84 1.5 NW 28 35 15 19 1007.8 1007.8 0.0
13/01:00am 16.8 12.7 13.9 83 1.7 NW 28 33 15 18 1008.2 1008.2 0.0
13/12:30am 16.8 12.3 13.9 83 1.6 NW 30 35 16 19 1008.8 1008.8 0.0
13/12:00am 16.8 13.0 13.7 82 1.8 NW 26 33 14 18 1009.3 1009.3 0.0
 
Date/Time
EDT
Temp
°C
App
Temp
°C
Dew
Point
Rel
Hum
%
Delta-T
°C
Wind Press
QNH
hPa
Press
MSL
hPa
Rain
since 9 am
mm
Dir
 
Spd
km/h
Gust
km/h
Spd
kts
Gust
kts
12/11:30pm 16.6 13.1 13.3 81 1.9 NW 24 30 13 16 1009.4 1009.4 0.0
12/11:00pm 15.7 13.6 12.3 80 1.9 NNW 15 19 8 10 1009.9 1009.9 0.0
12/10:30pm 15.3 12.6 11.7 79 1.9 N 17 20 9 11 1010.2 1010.2 0.0
12/10:00pm 15.8 13.2 12.0 78 2.1 NNW 17 26 9 14 1010.4 1010.4 0.0
12/09:30pm 16.6 13.6 12.6 77 2.2 NW 20 28 11 15 1010.6 1010.6 0.0
12/09:00pm 16.7 13.7 12.5 76 2.3 NNW 20 24 11 13 1010.7 1010.7 0.0
12/08:30pm 16.8 14.3 12.3 75 2.5 NW 17 20 9 11 1010.8 1010.8 0.0
12/08:00pm 17.1 15.0 12.4 74 2.6 NW 15 20 8 11 1011.0 1011.0 0.0
12/07:30pm 17.6 15.9 12.5 72 2.8 NW 13 17 7 9 1010.9 1010.9 0.0
12/07:00pm 18.1 17.6 12.5 70 3.1 WNW 7 9 4 5 1011.0 1011.0 0.0
12/06:30pm 18.5 18.6 12.7 69 3.2 SSW 4 7 2 4 1011.2 1011.2 0.0
12/06:00pm 19.4 18.8 13.6 69 3.3 S 9 11 5 6 1011.5 1011.5 0.0
12/05:30pm 20.2 19.3 13.6 66 3.8 SSE 11 15 6 8 1011.7 1011.7 0.0
12/05:00pm 20.7 19.4 13.6 64 4.1 SSE 13 17 7 9 1012.0 1012.0 0.0
12/04:30pm 21.0 19.7 13.7 63 4.2 SSE 13 17 7 9 1012.4 1012.4 0.0
12/04:00pm 20.5 18.7 13.2 63 4.2 S 15 19 8 10 1013.0 1013.0 0.0
12/03:30pm 20.6 18.7 13.1 62 4.3 SSE 15 19 8 10 1013.1 1013.1 0.0
12/03:00pm 21.2 19.1 13.6 62 4.4 SSE 17 20 9 11 1013.6 1013.6 0.0
12/02:30pm 21.1 19.0 13.5 62 4.4 SSE 17 20 9 11 1014.0 1014.0 0.0
12/02:00pm 20.8 18.7 13.5 63 4.2 S 17 22 9 12 1014.5 1014.5 0.0
12/01:30pm 20.6 18.2 13.8 65 3.9 SSW 19 22 10 12 1015.1 1015.1 0.0
12/01:00pm 20.3 18.4 14.2 68 3.5 SSW 17 20 9 11 1015.2 1015.2 0.0
12/12:30pm 19.8 18.2 14.0 69 3.3 S 15 20 8 11 1015.3 1015.3 0.0
12/12:00pm 20.1 18.5 13.8 67 3.6 S 15 17 8 9 1015.8 1015.7 0.0
12/11:30am 19.1 17.7 13.3 69 3.3 SE 13 17 7 9 1016.3 1016.2 0.0
12/11:00am 17.9 16.3 12.8 72 2.8 SE 13 17 7 9 1016.8 1016.8 0.0
12/10:30am 18.1 16.3 13.2 73 2.8 SE 15 17 8 9 1017.3 1017.2 0.0
12/10:00am 18.7 17.5 14.0 74 2.7 ESE 13 19 7 10 1017.4 1017.4 0.0
12/09:30am 18.0 17.1 13.7 76 2.4 ESE 11 15 6 8 1017.9 1017.8 0.0
12/09:00am 17.0 16.3 13.3 79 2.1 ESE 9 13 5 7 1018.0 1018.0 0.2
12/08:30am 16.0 15.6 12.9 82 1.7 E 7 11 4 6 1018.0 1017.9 0.2
12/08:00am 14.9 14.4 12.2 84 1.5 ESE 6 7 3 4 1018.0 1018.0 0.2
12/07:30am 12.9 11.7 10.4 85 1.3 E 7 9 4 5 1017.7 1017.6 0.2
12/07:00am 11.2 8.8 8.6 84 1.3 ENE 11 13 6 7 1017.1 1017.1 0.2
12/06:30am 11.1 8.6 8.3 83 1.4 ENE 11 13 6 7 1017.0 1016.9 0.2
12/06:00am 11.1 8.6 8.1 82 1.5 ENE 11 13 6 7 1016.8 1016.8 0.2

Other Formats:

Comma delimited format used in spreadsheet applications
http://www.bom.gov.au/fwo/IDT60801/IDT60801.95961.axf

JavaScript Object Notation format (JSON) in row-major order
http://www.bom.gov.au/fwo/IDT60801/IDT60801.95961.json